Strona główna
METAR-TAF:

METAR-TAF

Lotnisko :

Upshur County Regional Airport

Buckhannon, Wirginia Zachodnia, Stany Zjednoczone

Szerokość geograficzna: 39-00N, Długość geograficzna: 080-16W, wysokość: 498 m

Aktualna obserwacja pogody

Raport powstał 12 minut temu, godzina 13:15 UTC
Wiatr 3 kt od południowy wschód
Temperatura 0°C
Wilgotność 74%
Ciśnienie 1022 hPa
Widzialność: 14.5 km
Rozproszone chmury na wysokości 2900 ft
Przerywane chmury na wysokości 4000 ft
Zachmurzenie całkowite na wysokości 5000 ft

METAR: KW22 181315Z AUTO 13003KT 9SM SCT029 BKN040 OVC050 M00/M04 A3017 RMK AO2

czas: 08:27 (13:27 UTC)


TAF: brakujący

Obserwacja i prognoza pogody dla ponad 4000 lotnisk (raport METAR i TAF).

Dostępne stacje oznaczono żółtymi i czerwonymi punktami na mapie.

Najedź kursorem aby zobaczyć nazwę stacji.

Kliknij aby zobaczyć obserwacje i prognozy pogody.

Aby zmienić mapę: kliknij na zielony przycisk z czarnym krzyżykiem, aby powiększyć; na zielony przycisk z myślnikiem, aby pomniejszyć; na zielone strzałki, aby przejść do map sąsiednich.


METAR-TAF: